Accueil
METAR-TAF:

METAR-TAF

Aéroports :

Amman, Jordanie

Aéroport civil d'Amman

latitude: 31-59N, longitude: 035-59E, altitude: 767 m

Observation

Le bulletin a été fait il y a 42 minutes, à 22:00 UTC
Vent 4 kt de nord-ouest
Température 26°C
Humidité 23%
Pression 1012 hPa
Visibilité: 6000 m

METAR: OJAM 272200Z 31004KT 6000 NSC 26/03 Q1012 NOSIG

Heure: 01:42 (22:42 UTC)

Prévision

Le bulletin a été fait il y a 6 heures et 11 minutes, à 16:31 UTC
Prévision valable du 27 à 18 UTC au 28 à 24 UTC
Vent 10 kt de nord-ouest
Visibilité: 5000 m
brume sèche
Temporairement
du 28 à 02 UTC au 28 à 06 UTC
Vent 1 kt de direction variable
Visibilité: 3000 m
fumée

TAF: OJAM 271631Z 2718/2824 31010KT 5000 HZ NSC TEMPO 2802/2806 VRB01KT 3000 FU

Observations et prévisions météorologiques de plus de 4000 aéroports (messages METAR et TAF).

Les stations disponibles sont représentées par des disques jaunes et rouges sur la carte.

Passer la souris dessus pour voir le nom de la station.

Cliquer dessus pour voir les observations et prévisions météorologiques.

Pour changer de carte: cliquez sur les boutons verts avec une croix noire pour zoomer, sur le bouton vert avec un tiret pour effectuer un zoom arrière, ou sur les flèches vertes pour les cartes adjacentes.


METAR-TAF: